Time;durP1;ratioP1;P1;durP2;ratioP2;P2;SDS_P1;SDS_P2;PMS_P1;PMS_P2;Temp;Humidity;BMP_temperature;BMP_pressure;BME280_temperature;BME280_humidity;BME280_pressure;Samples;Min_cycle;Max_cycle;Signal;HPM_P1;HPM_P2
2022/05/28 00:00:01;;;;;;;;;;;17.90;92.70;18.10;99993.00;;;;339039;28;83371;-88
2022/05/28 00:00:14;;;;;;;;;;;18.00;92.70;18.10;99991.00;;;;341315;28;91338;-88
2022/05/28 00:00:25;;;;;;;;;;;18.00;92.70;18.10;99999.00;;;;338833;28;83199;-88
2022/05/28 00:00:37;;;;;;;;;;;17.90;92.70;18.10;99996.00;;;;339988;28;90289;-89
2022/05/28 00:00:52;;;;;;;;;;;18.00;92.70;18.10;99998.00;;;;340356;28;83313;-89
2022/05/28 00:01:04;;;;;;;;;;;18.00;92.70;18.10;99994.00;;;;337613;28;92075;-88
2022/05/28 00:01:18;;;;;;;;;;;18.00;92.80;18.00;99999.00;;;;339045;28;83118;-88
2022/05/28 00:01:30;;;;;;;;;;;18.00;92.70;18.10;99999.00;;;;339580;28;88960;-88
2022/05/28 00:01:42;;;;;;;;;;;18.00;92.70;18.10;99991.00;;;;340390;28;83406;-88
2022/05/28 00:01:54;;;;;;;;;;;18.00;92.70;18.10;99996.00;;;;345555;28;89182;-88
2022/05/28 00:02:06;;;;;;;;;;;17.90;92.70;18.10;99996.00;;;;347211;28;83455;-88
2022/05/28 00:02:18;;;;;;;;;;;18.00;92.70;18.00;99996.00;;;;345708;28;89097;-89
2022/05/28 00:02:30;;;;;;;;;;;17.90;92.70;17.90;100005.00;;;;345958;28;82430;-88
2022/05/28 00:02:42;;;;;;;;;;;17.90;92.70;17.90;100000.00;;;;345581;28;90836;-88
2022/05/28 00:02:54;;;;;;;;;;;17.90;92.70;17.90;99999.00;;;;346047;28;82607;-88
2022/05/28 00:03:05;;;;;;;;;;;17.90;92.70;17.90;100002.00;;;;346886;28;91449;-88
2022/05/28 00:03:18;;;;;;;;;;;17.90;92.70;18.00;99997.00;;;;347337;28;83498;-88
2022/05/28 00:03:30;;;;;;;;;;;17.90;92.70;18.00;99997.00;;;;344093;28;91638;-88
2022/05/28 00:03:42;;;;;;;;;;;17.90;92.80;18.00;100001.00;;;;347384;28;83495;-88
2022/05/28 00:03:57;;;;;;;;;;;17.90;92.80;18.00;100001.00;;;;345552;28;92046;-88
2022/05/28 00:04:09;;;;;;;;;;;17.90;92.80;18.00;100009.00;;;;346019;28;83470;-89
2022/05/28 00:04:21;;;;;;;;;;;17.90;92.90;18.10;100005.00;;;;346945;28;91563;-88
2022/05/28 00:04:32;;;;;;;;;;;17.90;92.90;18.10;99997.00;;;;348694;27;83326;-88
2022/05/28 00:04:46;;;;;;;;;;;17.90;92.90;18.10;99999.00;;;;348292;27;91506;-88
2022/05/28 00:04:58;;;;;;;;;;;17.90;92.80;18.10;100003.00;;;;348696;27;83276;-88
2022/05/28 00:05:10;;;;;;;;;;;17.90;92.80;18.10;99997.00;;;;346850;27;91453;-88
2022/05/28 00:05:22;;;;;;;;;;;17.90;92.80;18.20;99998.00;;;;346046;28;83330;-88
2022/05/28 00:05:33;;;;;;;;;;;17.90;92.80;18.10;99994.00;;;;346688;28;90434;-89
2022/05/28 00:05:45;;;;;;;;;;;17.90;92.80;18.00;99996.00;;;;346042;28;82457;-88
2022/05/28 00:05:57;;;;;;;;;;;17.90;92.80;18.10;99995.00;;;;345518;28;91464;-88
2022/05/28 00:06:10;;;;;;;;;;;17.90;92.80;18.10;99995.00;;;;347478;28;82324;-88
2022/05/28 00:06:22;;;;;;;;;;;17.90;92.80;18.10;99998.00;;;;344242;28;91501;-88
2022/05/28 00:06:34;;;;;;;;;;;17.90;92.80;18.10;100002.00;;;;347270;28;83437;-88
2022/05/28 00:06:46;;;;;;;;;;;17.90;92.80;18.00;100004.00;;;;344080;28;91308;-89
2022/05/28 00:06:58;;;;;;;;;;;17.90;92.80;18.00;99996.00;;;;346495;28;83595;-88
2022/05/28 00:07:10;;;;;;;;;;;17.90;92.80;18.10;99995.00;;;;348123;27;92188;-88
2022/05/28 00:07:21;;;;;;;;;;;17.90;92.90;18.10;99994.00;;;;346025;28;82561;-88
2022/05/28 00:07:33;;;;;;;;;;;17.90;92.90;18.10;99993.00;;;;346829;28;92544;-88
2022/05/28 00:07:45;;;;;;;;;;;17.90;92.90;18.10;99997.00;;;;347100;28;82437;-88
2022/05/28 00:07:57;;;;;;;;;;;17.90;92.80;18.10;100001.00;;;;345496;28;90464;-89
2022/05/28 00:08:09;;;;;;;;;;;17.90;92.80;18.10;99993.00;;;;346006;28;82369;-88
2022/05/28 00:08:21;;;;;;;;;;;17.90;93.10;18.10;99999.00;;;;346934;28;91670;-89
2022/05/28 00:08:32;;;;;;;;;;;17.90;92.90;18.10;99997.00;;;;350025;27;83459;-88
2022/05/28 00:08:44;;;;;;;;;;;17.90;92.90;18.10;99994.00;;;;348281;27;92355;-89
2022/05/28 00:08:56;;;;;;;;;;;17.90;92.80;18.10;99992.00;;;;346099;28;83372;-88
2022/05/28 00:09:08;;;;;;;;;;;17.90;92.90;18.10;99996.00;;;;346894;28;91147;-89
2022/05/28 00:09:20;;;;;;;;;;;17.90;92.90;18.10;99994.00;;;;343321;28;82359;-88
2022/05/28 00:09:32;;;;;;;;;;;17.90;92.90;18.10;99994.00;;;;345580;28;90238;-89
2022/05/28 00:09:43;;;;;;;;;;;17.90;92.90;18.20;99990.00;;;;345978;28;82561;-88
2022/05/28 00:10:02;;;;;;;;;;;17.90;92.80;18.10;99996.00;;;;346138;28;91592;-89
2022/05/28 00:10:15;;;;;;;;;;;17.90;92.80;18.20;99997.00;;;;345690;28;83487;-88
2022/05/28 00:10:27;;;;;;;;;;;17.90;92.80;18.20;99985.00;;;;345525;28;91607;-89
2022/05/28 00:10:39;;;;;;;;;;;17.90;92.90;18.10;99999.00;;;;344717;28;83439;-88
2022/05/28 00:10:51;;;;;;;;;;;17.90;92.80;18.10;99995.00;;;;345467;28;91909;-89
2022/05/28 00:11:13;;;;;;;;;;;18.00;92.80;18.20;99994.00;;;;347134;28;83513;-87
2022/05/28 00:11:27;;;;;;;;;;;18.00;92.80;18.10;99991.00;;;;346958;28;91215;-89
2022/05/28 00:11:41;;;;;;;;;;;18.00;92.80;18.20;99991.00;;;;344699;28;82457;-88
2022/05/28 00:11:52;;;;;;;;;;;18.00;92.80;18.20;99999.00;;;;345354;28;91331;-88
2022/05/28 00:12:05;;;;;;;;;;;18.00;92.80;18.10;99988.00;;;;348763;27;82304;-89
2022/05/28 00:12:17;;;;;;;;;;;18.00;92.80;18.10;99997.00;;;;346674;28;91183;-89
2022/05/28 00:12:29;;;;;;;;;;;18.00;92.80;18.10;99995.00;;;;346099;28;83355;-87
2022/05/28 00:12:40;;;;;;;;;;;18.00;92.80;18.20;99997.00;;;;345463;28;91505;-88
2022/05/28 00:12:53;;;;;;;;;;;18.00;92.80;18.20;99996.00;;;;344536;28;83350;-88
2022/05/28 00:13:04;;;;;;;;;;;18.00;92.80;18.20;99995.00;;;;344825;28;91395;-88
2022/05/28 00:13:16;;;;;;;;;;;18.00;92.80;18.20;99993.00;;;;343402;28;82423;-88
2022/05/28 00:13:28;;;;;;;;;;;18.00;92.80;18.10;99992.00;;;;345084;28;90806;-89
2022/05/28 00:13:40;;;;;;;;;;;18.00;92.80;18.10;99993.00;;;;347390;28;83184;-89
2022/05/28 00:13:52;;;;;;;;;;;18.00;92.80;18.20;99987.00;;;;346860;28;88632;-89
2022/05/28 00:14:05;;;;;;;;;;;18.00;92.80;18.20;99990.00;;;;346102;28;83334;-88
2022/05/28 00:14:17;;;;;;;;;;;18.00;92.80;18.20;99988.00;;;;345605;28;92321;-89
2022/05/28 00:14:29;;;;;;;;;;;18.00;92.80;18.20;99987.00;;;;347481;28;83324;-88
2022/05/28 00:14:41;;;;;;;;;;;18.00;92.80;18.20;99994.00;;;;346994;28;91727;-89
2022/05/28 00:14:52;;;;;;;;;;;18.00;93.10;18.20;99989.00;;;;347510;28;83414;-88
2022/05/28 00:15:06;;;;;;;;;;;18.00;92.80;18.20;99992.00;;;;345368;28;91281;-89
2022/05/28 00:15:17;;;;;;;;;;;18.00;92.80;18.20;99990.00;;;;348828;27;83214;-89
2022/05/28 00:15:29;;;;;;;;;;;18.00;92.80;18.20;99993.00;;;;348402;27;90434;-88
2022/05/28 00:15:43;;;;;;;;;;;18.00;92.80;18.10;99993.00;;;;346106;28;82592;-88
2022/05/28 00:15:55;;;;;;;;;;;18.00;92.80;18.20;99990.00;;;;345610;28;93098;-88
2022/05/28 00:16:08;;;;;;;;;;;18.00;92.80;18.10;99988.00;;;;345921;28;83474;-88
2022/05/28 00:16:20;;;;;;;;;;;18.00;92.80;18.10;99989.00;;;;348365;27;90271;-88
2022/05/28 00:16:33;;;;;;;;;;;18.00;92.70;18.10;99984.00;;;;345945;28;83605;-89
2022/05/28 00:16:46;;;;;;;;;;;18.00;92.70;18.00;99985.00;;;;347014;28;92582;-89
2022/05/28 00:16:58;;;;;;;;;;;18.00;92.70;17.90;99997.00;;;;347881;27;83500;-89
2022/05/28 00:17:10;;;;;;;;;;;18.00;92.80;17.80;99983.00;;;;346954;28;91952;-88
2022/05/28 00:17:22;;;;;;;;;;;17.90;92.80;17.90;99992.00;;;;346088;28;83434;-88
2022/05/28 00:17:34;;;;;;;;;;;17.90;92.80;18.00;99990.00;;;;348351;27;89275;-88
2022/05/28 00:17:46;;;;;;;;;;;17.90;92.80;18.00;99982.00;;;;347320;28;83346;-88
2022/05/28 00:17:59;;;;;;;;;;;17.90;92.80;18.00;99982.00;;;;345354;28;89986;-88
2022/05/28 00:18:10;;;;;;;;;;;17.90;92.80;18.00;99993.00;;;;346006;28;83224;-88
2022/05/28 00:18:22;;;;;;;;;;;17.90;92.90;18.00;99983.00;;;;348416;27;90688;-88
2022/05/28 00:18:35;;;;;;;;;;;17.90;92.90;18.00;99995.00;;;;346046;28;82466;-89
2022/05/28 00:18:49;;;;;;;;;;;17.90;92.90;18.00;99988.00;;;;344162;28;92171;-88
2022/05/28 00:19:01;;;;;;;;;;;17.90;92.90;18.00;99987.00;;;;347105;28;82765;-88
2022/05/28 00:19:12;;;;;;;;;;;17.90;92.90;18.00;99988.00;;;;345351;28;91203;-88
2022/05/28 00:19:24;;;;;;;;;;;17.90;92.90;18.00;99986.00;;;;344907;28;82327;-88
2022/05/28 00:19:36;;;;;;;;;;;17.90;92.80;18.00;99983.00;;;;348408;27;90966;-88
2022/05/28 00:19:47;;;;;;;;;;;17.90;92.80;18.00;99985.00;;;;348781;27;82407;-88
2022/05/28 00:19:59;;;;;;;;;;;17.90;92.90;18.10;99979.00;;;;347325;27;92845;-88
2022/05/28 00:20:11;;;;;;;;;;;17.90;92.90;18.10;99983.00;;;;345787;28;83677;-88
2022/05/28 00:20:23;;;;;;;;;;;17.90;92.90;18.00;99984.00;;;;347047;28;91258;-88
2022/05/28 00:20:35;;;;;;;;;;;17.90;92.90;18.00;99984.00;;;;347302;28;83431;-88
2022/05/28 00:20:47;;;;;;;;;;;17.90;92.90;18.00;99987.00;;;;349833;27;91193;-89
2022/05/28 00:20:59;;;;;;;;;;;17.90;92.90;17.90;99987.00;;;;348714;27;83568;-88
2022/05/28 00:21:11;;;;;;;;;;;17.90;92.90;17.90;99982.00;;;;344105;28;91526;-89
2022/05/28 00:21:23;;;;;;;;;;;17.90;93.00;18.00;99987.00;;;;347357;28;83417;-88
2022/05/28 00:21:35;;;;;;;;;;;17.90;93.00;18.00;99984.00;;;;345616;28;91341;-88
2022/05/28 00:21:46;;;;;;;;;;;17.90;93.00;18.00;99990.00;;;;345898;28;83314;-88
2022/05/28 00:21:58;;;;;;;;;;;17.90;93.00;17.90;99984.00;;;;347862;27;91496;-88
2022/05/28 00:22:10;;;;;;;;;;;17.90;93.00;18.00;99979.00;;;;346970;28;83467;-88
2022/05/28 00:22:22;;;;;;;;;;;17.90;93.00;18.00;99979.00;;;;346933;28;90380;-89
2022/05/28 00:22:40;;;;;;;;;;;17.90;92.90;18.00;99989.00;;;;348635;27;83304;-88
2022/05/28 00:22:52;;;;;;;;;;;17.90;92.90;18.00;99980.00;;;;346906;28;91585;-88
2022/05/28 00:23:04;;;;;;;;;;;17.90;92.90;18.00;99978.00;;;;348544;27;83539;-88
2022/05/28 00:23:15;;;;;;;;;;;17.90;92.90;17.90;99983.00;;;;345460;28;91606;-88
2022/05/28 00:23:27;;;;;;;;;;;17.90;92.90;18.00;99980.00;;;;347449;28;83204;-89
2022/05/28 00:23:39;;;;;;;;;;;17.90;92.90;18.00;99976.00;;;;346949;28;91428;-88
2022/05/28 00:23:51;;;;;;;;;;;17.90;92.90;18.10;99986.00;;;;347121;27;83343;-88
2022/05/28 00:24:03;;;;;;;;;;;17.90;93.00;18.10;99976.00;;;;345357;28;92960;-88
2022/05/28 00:24:15;;;;;;;;;;;17.90;93.00;18.00;99989.00;;;;347342;28;83280;-88
2022/05/28 00:24:27;;;;;;;;;;;17.90;93.00;18.00;99983.00;;;;345650;28;88796;-88
2022/05/28 00:24:39;;;;;;;;;;;17.90;93.00;18.00;99981.00;;;;345881;28;83450;-88
2022/05/28 00:24:51;;;;;;;;;;;17.90;93.00;18.00;99981.00;;;;345722;28;88062;-89
2022/05/28 00:25:03;;;;;;;;;;;17.90;93.00;18.00;99984.00;;;;348336;27;82624;-89
2022/05/28 00:25:15;;;;;;;;;;;17.90;93.00;18.00;99980.00;;;;345531;28;91669;-89
2022/05/28 00:25:27;;;;;;;;;;;17.90;93.00;17.90;99988.00;;;;347259;28;84492;-88
2022/05/28 00:25:39;;;;;;;;;;;17.90;93.00;18.00;99987.00;;;;346963;28;90892;-88
2022/05/28 00:25:50;;;;;;;;;;;17.90;93.00;18.00;99981.00;;;;347386;28;83520;-88
2022/05/28 00:26:03;;;;;;;;;;;17.90;93.00;18.00;99988.00;;;;346703;27;93104;-88
2022/05/28 00:26:15;;;;;;;;;;;17.90;93.00;18.00;99987.00;;;;347350;28;83336;-88
2022/05/28 00:26:27;;;;;;;;;;;17.90;93.00;18.00;99985.00;;;;345574;28;91469;-88
2022/05/28 00:26:41;;;;;;;;;;;17.90;93.00;18.00;99995.00;;;;347306;28;83497;-89
2022/05/28 00:26:53;;;;;;;;;;;17.90;93.10;18.00;99984.00;;;;346902;28;92113;-88
2022/05/28 00:27:05;;;;;;;;;;;17.90;93.20;18.00;99983.00;;;;344290;28;83478;-88
2022/05/28 00:27:17;;;;;;;;;;;17.90;93.20;18.00;99980.00;;;;345506;28;90159;-88
2022/05/28 00:27:28;;;;;;;;;;;17.90;93.20;18.00;99987.00;;;;347463;28;83233;-88
2022/05/28 00:27:40;;;;;;;;;;;17.90;93.10;17.90;99978.00;;;;345526;28;91324;-88
2022/05/28 00:27:53;;;;;;;;;;;17.90;93.10;17.90;99988.00;;;;345813;28;83882;-88
2022/05/28 00:28:06;;;;;;;;;;;17.90;93.20;17.90;99988.00;;;;346449;28;88937;-89
2022/05/28 00:28:21;;;;;;;;;;;17.90;93.20;17.80;99992.00;;;;345983;28;83184;-89
2022/05/28 00:28:33;;;;;;;;;;;17.80;93.20;17.80;99981.00;;;;345511;28;91332;-88
2022/05/28 00:28:44;;;;;;;;;;;17.80;93.20;17.90;99986.00;;;;346041;28;82401;-88
2022/05/28 00:28:56;;;;;;;;;;;17.80;93.30;17.90;99977.00;;;;346938;27;90503;-88
2022/05/28 00:29:08;;;;;;;;;;;17.80;93.30;17.90;99980.00;;;;345863;28;84131;-87
2022/05/28 00:29:20;;;;;;;;;;;17.80;93.30;17.90;99980.00;;;;346850;28;92419;-88
2022/05/28 00:29:31;;;;;;;;;;;17.80;93.30;17.90;99983.00;;;;346018;28;83423;-88
2022/05/28 00:29:43;;;;;;;;;;;17.80;93.30;17.90;99977.00;;;;346760;28;89041;-88
2022/05/28 00:29:55;;;;;;;;;;;17.80;93.40;18.00;99979.00;;;;345946;28;83478;-88
2022/05/28 00:30:08;;;;;;;;;;;17.80;93.30;18.00;99980.00;;;;346869;28;91244;-88
2022/05/28 00:30:20;;;;;;;;;;;17.80;93.30;17.90;99982.00;;;;347359;28;83339;-88
2022/05/28 00:30:32;;;;;;;;;;;17.80;93.40;18.00;99983.00;;;;348302;27;88720;-89
2022/05/28 00:30:44;;;;;;;;;;;17.80;93.30;17.90;99981.00;;;;346059;28;83280;-89
2022/05/28 00:30:55;;;;;;;;;;;17.80;93.30;17.90;99980.00;;;;346511;28;89109;-88
2022/05/28 00:31:07;;;;;;;;;;;17.80;93.30;17.90;99977.00;;;;347114;28;83618;-88
2022/05/28 00:31:19;;;;;;;;;;;17.80;93.30;17.80;99980.00;;;;345495;28;91550;-89
2022/05/28 00:31:31;;;;;;;;;;;17.80;93.30;17.80;99977.00;;;;347034;28;83550;-88
2022/05/28 00:31:43;;;;;;;;;;;17.80;93.30;17.80;99988.00;;;;345539;28;91366;-88
2022/05/28 00:31:55;;;;;;;;;;;17.80;93.30;17.90;99980.00;;;;346080;28;83567;-88
2022/05/28 00:32:07;;;;;;;;;;;17.80;93.40;17.90;99987.00;;;;346618;28;92690;-88
2022/05/28 00:32:19;;;;;;;;;;;17.80;93.40;17.90;99984.00;;;;344722;28;83189;-88
2022/05/28 00:32:30;;;;;;;;;;;17.70;93.30;18.00;99980.00;;;;345543;28;88982;-88
2022/05/28 00:32:42;;;;;;;;;;;17.80;93.40;18.00;99985.00;;;;344456;28;83366;-88
2022/05/28 00:32:54;;;;;;;;;;;17.80;93.40;17.90;99975.00;;;;346979;28;91391;-88
2022/05/28 00:33:06;;;;;;;;;;;17.80;93.40;18.00;99975.00;;;;346007;28;83180;-88
2022/05/28 00:33:18;;;;;;;;;;;17.80;93.30;18.00;99973.00;;;;348316;27;91211;-88
2022/05/28 00:33:30;;;;;;;;;;;17.80;93.30;18.00;99979.00;;;;347266;28;83490;-88
2022/05/28 00:33:42;;;;;;;;;;;17.80;93.30;17.90;99977.00;;;;344201;28;91781;-88
2022/05/28 00:33:54;;;;;;;;;;;17.80;93.30;18.00;99983.00;;;;343221;28;83538;-88
2022/05/28 00:34:05;;;;;;;;;;;17.80;93.30;18.00;99988.00;;;;344979;28;92307;-88
2022/05/28 00:34:17;;;;;;;;;;;17.80;93.30;18.00;99975.00;;;;347359;28;83234;-88
2022/05/28 00:34:29;;;;;;;;;;;17.80;93.30;17.90;99976.00;;;;346932;27;88717;-88
2022/05/28 00:34:41;;;;;;;;;;;17.80;93.30;17.80;99976.00;;;;345966;28;83371;-88
2022/05/28 00:34:52;;;;;;;;;;;17.80;93.30;17.70;99988.00;;;;348357;27;91331;-89
2022/05/28 00:35:05;;;;;;;;;;;17.80;93.40;17.70;99971.00;;;;347246;28;83163;-88
2022/05/28 00:35:20;;;;;;;;;;;17.70;93.40;17.80;99977.00;;;;346584;28;91905;-88
2022/05/28 00:35:31;;;;;;;;;;;17.70;93.40;17.80;99975.00;;;;344543;28;82460;-88
2022/05/28 00:35:43;;;;;;;;;;;17.70;93.70;17.80;99984.00;;;;345672;28;89238;-88
2022/05/28 00:35:56;;;;;;;;;;;17.70;93.50;17.80;99977.00;;;;347317;28;83419;-88
2022/05/28 00:36:09;;;;;;;;;;;17.70;93.50;17.70;99980.00;;;;346750;28;91787;-88
2022/05/28 00:36:21;;;;;;;;;;;17.70;93.60;17.80;99977.00;;;;344676;28;82482;-89
2022/05/28 00:36:33;;;;;;;;;;;17.70;93.50;17.80;99977.00;;;;345478;28;91549;-88
2022/05/28 00:36:45;;;;;;;;;;;17.70;93.60;17.80;99974.00;;;;346014;28;83473;-88
2022/05/28 00:36:57;;;;;;;;;;;17.70;93.60;17.80;99969.00;;;;346545;28;90907;-89
2022/05/28 00:37:08;;;;;;;;;;;17.70;93.60;17.80;99973.00;;;;345796;28;83306;-87
2022/05/28 00:37:20;;;;;;;;;;;17.70;93.50;17.80;99970.00;;;;346938;28;91288;-89
2022/05/28 00:37:32;;;;;;;;;;;17.70;93.50;17.80;99974.00;;;;348609;27;83510;-88
2022/05/28 00:37:44;;;;;;;;;;;17.70;93.50;17.80;99973.00;;;;345592;28;90513;-88
2022/05/28 00:37:56;;;;;;;;;;;17.70;93.60;17.80;99969.00;;;;345543;28;83350;-88
2022/05/28 00:38:08;;;;;;;;;;;17.70;93.60;17.80;99973.00;;;;342606;28;92761;-88
2022/05/28 00:38:19;;;;;;;;;;;17.70;93.60;17.80;99970.00;;;;344690;28;83423;-88
2022/05/28 00:38:31;;;;;;;;;;;17.70;93.60;17.80;99976.00;;;;345532;28;91239;-89
2022/05/28 00:38:43;;;;;;;;;;;17.70;93.70;17.70;99975.00;;;;347477;28;83238;-88
2022/05/28 00:38:55;;;;;;;;;;;17.70;93.70;17.70;99969.00;;;;348308;27;90415;-88
2022/05/28 00:39:07;;;;;;;;;;;17.70;93.70;17.70;99972.00;;;;350167;27;83326;-88
2022/05/28 00:39:19;;;;;;;;;;;17.70;93.70;17.60;99972.00;;;;346886;28;91597;-88
2022/05/28 00:39:30;;;;;;;;;;;17.60;93.70;17.70;99976.00;;;;344666;28;83385;-88
2022/05/28 00:39:42;;;;;;;;;;;17.60;93.70;17.70;99968.00;;;;346924;28;91431;-88
2022/05/28 00:39:54;;;;;;;;;;;17.60;93.70;17.70;99970.00;;;;349424;27;83441;-88
2022/05/28 00:40:08;;;;;;;;;;;17.60;93.70;17.70;99980.00;;;;347511;27;92193;-88
2022/05/28 00:40:22;;;;;;;;;;;17.60;93.70;17.70;99972.00;;;;348784;27;83220;-88
2022/05/28 00:40:34;;;;;;;;;;;17.60;93.70;17.70;99973.00;;;;346810;28;91778;-88
2022/05/28 00:40:46;;;;;;;;;;;17.60;93.70;17.80;99972.00;;;;347401;28;83408;-88
2022/05/28 00:40:59;;;;;;;;;;;17.60;93.70;17.70;99975.00;;;;345524;28;91210;-88
2022/05/28 00:41:11;;;;;;;;;;;17.60;93.80;17.70;99969.00;;;;348759;27;83324;-88
2022/05/28 00:41:23;;;;;;;;;;;17.60;93.80;17.70;99966.00;;;;345543;28;92164;-88
2022/05/28 00:41:35;;;;;;;;;;;17.60;93.80;17.60;99967.00;;;;346005;28;82349;-88
2022/05/28 00:41:47;;;;;;;;;;;17.60;93.80;17.70;99968.00;;;;345475;28;91635;-88
2022/05/28 00:41:58;;;;;;;;;;;17.60;93.80;17.70;99967.00;;;;347410;28;82474;-88
2022/05/28 00:42:10;;;;;;;;;;;17.60;93.80;17.70;99968.00;;;;346886;28;92438;-88
2022/05/28 00:42:22;;;;;;;;;;;17.60;93.90;17.70;99973.00;;;;348769;27;83435;-88
2022/05/28 00:42:34;;;;;;;;;;;17.60;93.90;17.70;99960.00;;;;345431;28;90695;-88
2022/05/28 00:42:45;;;;;;;;;;;17.60;93.90;17.70;99966.00;;;;347464;28;83300;-88
2022/05/28 00:43:01;;;;;;;;;;;17.60;93.90;17.70;99967.00;;;;347839;27;92060;-88
2022/05/28 00:43:13;;;;;;;;;;;17.50;93.90;17.70;99964.00;;;;347161;27;82620;-88
2022/05/28 00:43:27;;;;;;;;;;;17.60;93.90;17.70;99968.00;;;;346890;28;91257;-88
2022/05/28 00:43:41;;;;;;;;;;;17.60;93.90;17.80;99966.00;;;;347251;28;82628;-89
2022/05/28 00:43:52;;;;;;;;;;;17.60;93.90;17.70;99971.00;;;;345446;28;90592;-89
2022/05/28 00:44:05;;;;;;;;;;;17.60;93.90;17.70;99960.00;;;;344718;28;83357;-88
2022/05/28 00:44:17;;;;;;;;;;;17.60;93.90;17.70;99964.00;;;;344068;28;92324;-88
2022/05/28 00:44:29;;;;;;;;;;;17.60;93.90;17.70;99970.00;;;;345964;28;83327;-89
2022/05/28 00:44:41;;;;;;;;;;;17.60;93.90;17.80;99962.00;;;;342771;28;91524;-88
2022/05/28 00:44:52;;;;;;;;;;;17.60;93.90;17.70;99958.00;;;;344702;28;83430;-88
2022/05/28 00:45:05;;;;;;;;;;;17.60;93.90;17.70;99961.00;;;;344132;28;91307;-88
2022/05/28 00:45:17;;;;;;;;;;;17.50;93.90;17.70;99972.00;;;;345952;28;82536;-88
2022/05/28 00:45:30;;;;;;;;;;;17.60;93.90;17.70;99966.00;;;;346924;27;91322;-88
2022/05/28 00:45:42;;;;;;;;;;;17.60;94.00;17.60;99959.00;;;;344597;28;83211;-88
2022/05/28 00:45:59;;;;;;;;;;;17.60;94.00;17.60;99961.00;;;;344132;28;91960;-88
2022/05/28 00:46:13;;;;;;;;;;;17.60;93.90;17.70;99969.00;;;;346540;28;83314;-88
2022/05/28 00:46:26;;;;;;;;;;;17.50;93.90;17.70;99965.00;;;;345705;28;92254;-87
2022/05/28 00:46:38;;;;;;;;;;;17.50;94.00;17.70;99966.00;;;;347268;27;83621;-88
2022/05/28 00:46:50;;;;;;;;;;;17.50;94.00;17.60;99972.00;;;;345210;28;90100;-88
2022/05/28 00:47:02;;;;;;;;;;;17.50;94.10;17.60;99962.00;;;;347266;28;83406;-88
2022/05/28 00:47:14;;;;;;;;;;;17.50;94.10;17.50;99962.00;;;;345453;28;91665;-88
2022/05/28 00:47:25;;;;;;;;;;;17.50;94.10;17.50;99966.00;;;;347408;28;83261;-88
2022/05/28 00:47:38;;;;;;;;;;;17.50;94.10;17.60;99967.00;;;;346852;28;91554;-88
2022/05/28 00:47:52;;;;;;;;;;;17.50;94.10;17.60;99957.00;;;;347284;28;83323;-88
2022/05/28 00:48:04;;;;;;;;;;;17.50;94.10;17.60;99962.00;;;;345515;28;92072;-89
2022/05/28 00:48:21;;;;;;;;;;;17.50;94.10;17.60;99963.00;;;;344596;28;83480;-88
2022/05/28 00:48:34;;;;;;;;;;;17.50;94.20;17.60;99961.00;;;;345303;28;93493;-88
2022/05/28 00:48:48;;;;;;;;;;;17.50;94.20;17.60;99966.00;;;;348738;27;83512;-89
2022/05/28 00:49:01;;;;;;;;;;;17.50;94.20;17.60;99965.00;;;;346120;28;90127;-88
2022/05/28 00:49:18;;;;;;;;;;;17.50;94.20;17.60;99964.00;;;;345561;28;83417;-88
2022/05/28 00:49:30;;;;;;;;;;;17.50;94.20;17.50;99961.00;;;;346909;28;88426;-88
2022/05/28 00:49:43;;;;;;;;;;;17.50;94.20;17.60;99962.00;;;;345951;28;83244;-88
2022/05/28 00:49:54;;;;;;;;;;;17.50;94.20;17.60;99963.00;;;;344020;28;92088;-88
2022/05/28 00:50:07;;;;;;;;;;;17.50;94.20;17.60;99968.00;;;;345952;28;83369;-88
2022/05/28 00:50:18;;;;;;;;;;;17.50;94.30;17.60;99966.00;;;;344234;28;88411;-88
2022/05/28 00:50:30;;;;;;;;;;;17.40;94.20;17.60;99963.00;;;;344669;28;83218;-88
2022/05/28 00:50:42;;;;;;;;;;;17.50;94.20;17.60;99958.00;;;;345432;28;92504;-88
2022/05/28 00:50:53;;;;;;;;;;;17.50;94.20;17.50;99964.00;;;;348727;27;83746;-88
2022/05/28 00:51:09;;;;;;;;;;;17.50;94.20;17.60;99965.00;;;;348386;27;90161;-88
2022/05/28 00:51:33;;;;;;;;;;;17.50;94.20;17.60;99960.00;;;;345969;28;83334;-88
2022/05/28 00:51:47;;;;;;;;;;;17.50;94.20;17.60;99964.00;;;;345501;28;90165;-88
2022/05/28 00:52:01;;;;;;;;;;;17.50;94.30;17.60;99955.00;;;;345074;28;82596;-88
2022/05/28 00:52:13;;;;;;;;;;;17.50;94.30;17.50;99955.00;;;;346868;28;87779;-88
2022/05/28 00:52:25;;;;;;;;;;;17.40;94.30;17.60;99960.00;;;;349014;27;82615;-88
2022/05/28 00:52:38;;;;;;;;;;;17.40;94.30;17.60;99954.00;;;;348265;27;91424;-88
2022/05/28 00:52:50;;;;;;;;;;;17.50;94.30;17.60;99954.00;;;;345922;28;82445;-88
2022/05/28 00:53:02;;;;;;;;;;;17.40;94.30;17.50;99964.00;;;;347852;27;89868;-88
2022/05/28 00:53:14;;;;;;;;;;;17.50;94.30;17.60;99959.00;;;;345999;28;83468;-89
2022/05/28 00:53:26;;;;;;;;;;;17.40;94.20;17.60;99962.00;;;;348317;27;92031;-89
2022/05/28 00:53:38;;;;;;;;;;;17.40;94.30;17.50;99958.00;;;;347497;28;83123;-88
2022/05/28 00:53:49;;;;;;;;;;;17.40;94.20;17.60;99957.00;;;;346804;28;90412;-88
2022/05/28 00:54:03;;;;;;;;;;;17.40;94.30;17.60;99958.00;;;;347372;28;82446;-88
2022/05/28 00:54:14;;;;;;;;;;;17.40;94.30;17.60;99951.00;;;;345599;28;91428;-88
2022/05/28 00:54:37;;;;;;;;;;;17.40;94.30;17.40;99963.00;;;;347297;28;83386;-88
2022/05/28 00:54:49;;;;;;;;;;;17.40;94.30;17.40;99954.00;;;;345501;28;91558;-88
2022/05/28 00:55:02;;;;;;;;;;;17.40;94.40;17.50;99956.00;;;;345324;28;83567;-88
2022/05/28 00:55:14;;;;;;;;;;;17.40;94.40;17.50;99955.00;;;;346647;28;92900;-88
2022/05/28 00:55:26;;;;;;;;;;;17.40;94.40;17.50;99953.00;;;;347314;28;83265;-89
2022/05/28 00:55:37;;;;;;;;;;;17.40;94.40;17.50;99952.00;;;;346883;28;90064;-88
2022/05/28 00:55:49;;;;;;;;;;;17.40;94.40;17.50;99961.00;;;;345674;28;83474;-88
2022/05/28 00:56:02;;;;;;;;;;;17.40;94.40;17.60;99963.00;;;;345627;28;89915;-88
2022/05/28 00:56:14;;;;;;;;;;;17.40;94.40;17.60;99956.00;;;;347370;28;83302;-88
2022/05/28 00:56:27;;;;;;;;;;;17.40;94.40;17.60;99962.00;;;;348384;27;91633;-88
2022/05/28 00:56:39;;;;;;;;;;;17.40;94.40;17.60;99962.00;;;;348752;27;83213;-88
2022/05/28 00:56:50;;;;;;;;;;;17.40;94.50;17.60;99959.00;;;;346856;28;91602;-89
2022/05/28 00:57:03;;;;;;;;;;;17.40;94.50;17.60;99966.00;;;;347442;28;83256;-89
2022/05/28 00:57:15;;;;;;;;;;;17.40;94.40;17.60;99956.00;;;;345372;28;92461;-89
2022/05/28 00:57:27;;;;;;;;;;;17.40;94.50;17.60;99961.00;;;;345993;28;83379;-88
2022/05/28 00:57:40;;;;;;;;;;;17.40;94.50;17.50;99966.00;;;;346996;28;90147;-88
2022/05/28 00:57:51;;;;;;;;;;;17.40;94.50;17.50;99963.00;;;;348685;27;83505;-88
2022/05/28 00:58:05;;;;;;;;;;;17.40;94.50;17.50;99956.00;;;;345175;28;90228;-88
2022/05/28 00:58:16;;;;;;;;;;;17.40;94.50;17.50;99964.00;;;;345956;28;83282;-89
2022/05/28 00:58:29;;;;;;;;;;;17.40;94.50;17.50;99954.00;;;;345282;28;91853;-88
2022/05/28 00:58:40;;;;;;;;;;;17.40;94.50;17.60;99958.00;;;;347349;28;83362;-87
2022/05/28 00:58:52;;;;;;;;;;;17.40;94.50;17.50;99949.00;;;;345243;28;90478;-88
2022/05/28 00:59:04;;;;;;;;;;;17.40;94.50;17.50;99956.00;;;;347300;28;83465;-88
2022/05/28 00:59:16;;;;;;;;;;;17.40;94.50;17.50;99955.00;;;;346895;27;92354;-88
2022/05/28 00:59:28;;;;;;;;;;;17.40;94.50;17.60;99954.00;;;;347421;28;83328;-88
2022/05/28 00:59:39;;;;;;;;;;;17.40;94.50;17.60;99952.00;;;;346986;28;88861;-88
2022/05/28 00:59:52;;;;;;;;;;;17.40;94.50;17.60;99955.00;;;;344636;28;82603;-88
2022/05/28 01:00:04;;;;;;;;;;;17.40;94.50;17.50;99953.00;;;;345492;28;91373;-88
2022/05/28 01:00:19;;;;;;;;;;;17.40;94.50;17.50;99947.00;;;;344628;28;83389;-88
2022/05/28 01:00:32;;;;;;;;;;;17.40;94.50;17.50;99955.00;;;;343983;28;91431;-88
2022/05/28 01:00:44;;;;;;;;;;;17.40;94.50;17.50;99954.00;;;;347386;28;82507;-88
2022/05/28 01:00:56;;;;;;;;;;;17.40;94.60;17.40;99957.00;;;;349297;27;91502;-88
2022/05/28 01:01:08;;;;;;;;;;;17.40;94.50;17.50;99945.00;;;;348843;27;83457;-88